sensor_id;sensor_type;location;lat;lon;timestamp;P1;durP1;ratioP1;P2;durP2;ratioP2
4696;SDS011;2362;50.780;0.292;2023-06-10T00:01:33;46.58;;;13.70;;
4696;SDS011;2362;50.780;0.292;2023-06-10T00:04:01;47.33;;;12.73;;
4696;SDS011;2362;50.780;0.292;2023-06-10T00:06:29;40.35;;;13.63;;
4696;SDS011;2362;50.780;0.292;2023-06-10T00:09:00;50.83;;;14.38;;
4696;SDS011;2362;50.780;0.292;2023-06-10T00:11:26;38.65;;;12.35;;
4696;SDS011;2362;50.780;0.292;2023-06-10T00:13:52;51.85;;;13.00;;
4696;SDS011;2362;50.780;0.292;2023-06-10T00:16:18;43.28;;;13.02;;
4696;SDS011;2362;50.780;0.292;2023-06-10T00:18:44;38.13;;;12.23;;
4696;SDS011;2362;50.780;0.292;2023-06-10T00:21:09;42.67;;;13.63;;
4696;SDS011;2362;50.780;0.292;2023-06-10T00:23:35;36.83;;;12.40;;
4696;SDS011;2362;50.780;0.292;2023-06-10T00:26:03;42.63;;;12.02;;
4696;SDS011;2362;50.780;0.292;2023-06-10T00:28:29;47.83;;;13.20;;
4696;SDS011;2362;50.780;0.292;2023-06-10T00:30:55;46.63;;;12.82;;
4696;SDS011;2362;50.780;0.292;2023-06-10T00:33:22;50.20;;;13.63;;
4696;SDS011;2362;50.780;0.292;2023-06-10T00:35:48;45.38;;;13.82;;
4696;SDS011;2362;50.780;0.292;2023-06-10T00:38:14;40.92;;;12.82;;
4696;SDS011;2362;50.780;0.292;2023-06-10T00:40:40;47.53;;;13.73;;
4696;SDS011;2362;50.780;0.292;2023-06-10T00:43:06;46.05;;;15.10;;
4696;SDS011;2362;50.780;0.292;2023-06-10T00:45:57;48.70;;;12.65;;
4696;SDS011;2362;50.780;0.292;2023-06-10T00:48:24;52.80;;;14.10;;
4696;SDS011;2362;50.780;0.292;2023-06-10T00:50:51;41.13;;;12.00;;
4696;SDS011;2362;50.780;0.292;2023-06-10T00:53:16;42.72;;;13.75;;
4696;SDS011;2362;50.780;0.292;2023-06-10T00:55:43;46.92;;;12.27;;
4696;SDS011;2362;50.780;0.292;2023-06-10T00:58:08;39.13;;;12.57;;
4696;SDS011;2362;50.780;0.292;2023-06-10T01:00:35;46.97;;;12.68;;
4696;SDS011;2362;50.780;0.292;2023-06-10T01:03:01;41.90;;;12.50;;
4696;SDS011;2362;50.780;0.292;2023-06-10T01:05:32;47.78;;;12.90;;
4696;SDS011;2362;50.780;0.292;2023-06-10T01:10:57;47.22;;;14.23;;
4696;SDS011;2362;50.780;0.292;2023-06-10T01:13:26;40.88;;;11.27;;
4696;SDS011;2362;50.780;0.292;2023-06-10T01:15:58;48.53;;;13.98;;
4696;SDS011;2362;50.780;0.292;2023-06-10T01:18:29;40.13;;;12.45;;
4696;SDS011;2362;50.780;0.292;2023-06-10T01:20:56;47.60;;;13.30;;
4696;SDS011;2362;50.780;0.292;2023-06-10T01:23:22;45.78;;;12.93;;
4696;SDS011;2362;50.780;0.292;2023-06-10T01:25:53;50.40;;;12.40;;
4696;SDS011;2362;50.780;0.292;2023-06-10T01:28:27;50.15;;;12.65;;
4696;SDS011;2362;50.780;0.292;2023-06-10T01:31:06;45.72;;;12.48;;
4696;SDS011;2362;50.780;0.292;2023-06-10T01:33:39;40.38;;;12.77;;
4696;SDS011;2362;50.780;0.292;2023-06-10T01:36:08;49.05;;;14.48;;
4696;SDS011;2362;50.780;0.292;2023-06-10T01:38:44;42.92;;;12.88;;
4696;SDS011;2362;50.780;0.292;2023-06-10T01:41:13;41.28;;;13.23;;
4696;SDS011;2362;50.780;0.292;2023-06-10T01:43:42;41.22;;;13.50;;
4696;SDS011;2362;50.780;0.292;2023-06-10T01:46:09;42.55;;;13.10;;
4696;SDS011;2362;50.780;0.292;2023-06-10T01:49:00;41.70;;;12.18;;
4696;SDS011;2362;50.780;0.292;2023-06-10T01:51:51;39.28;;;12.65;;
4696;SDS011;2362;50.780;0.292;2023-06-10T01:54:16;39.22;;;11.77;;
4696;SDS011;2362;50.780;0.292;2023-06-10T01:56:42;44.53;;;12.60;;
4696;SDS011;2362;50.780;0.292;2023-06-10T01:59:07;41.47;;;13.80;;
4696;SDS011;2362;50.780;0.292;2023-06-10T02:01:33;45.33;;;12.18;;
4696;SDS011;2362;50.780;0.292;2023-06-10T02:03:59;50.70;;;13.05;;
4696;SDS011;2362;50.780;0.292;2023-06-10T02:06:24;49.42;;;12.70;;
4696;SDS011;2362;50.780;0.292;2023-06-10T02:08:50;41.00;;;12.25;;
4696;SDS011;2362;50.780;0.292;2023-06-10T02:11:16;35.40;;;13.18;;
4696;SDS011;2362;50.780;0.292;2023-06-10T02:13:41;45.53;;;12.20;;
4696;SDS011;2362;50.780;0.292;2023-06-10T02:16:07;39.95;;;12.77;;
4696;SDS011;2362;50.780;0.292;2023-06-10T02:18:32;40.38;;;13.65;;
4696;SDS011;2362;50.780;0.292;2023-06-10T02:21:24;37.30;;;13.02;;
4696;SDS011;2362;50.780;0.292;2023-06-10T02:23:49;37.30;;;11.70;;
4696;SDS011;2362;50.780;0.292;2023-06-10T02:26:15;42.15;;;12.82;;
4696;SDS011;2362;50.780;0.292;2023-06-10T02:28:44;53.10;;;13.10;;
4696;SDS011;2362;50.780;0.292;2023-06-10T02:31:09;54.17;;;12.50;;
4696;SDS011;2362;50.780;0.292;2023-06-10T02:33:35;39.15;;;12.77;;
4696;SDS011;2362;50.780;0.292;2023-06-10T02:36:05;43.05;;;13.32;;
4696;SDS011;2362;50.780;0.292;2023-06-10T02:38:31;46.40;;;13.00;;
4696;SDS011;2362;50.780;0.292;2023-06-10T02:40:56;32.67;;;12.15;;
4696;SDS011;2362;50.780;0.292;2023-06-10T02:43:22;42.92;;;13.93;;
4696;SDS011;2362;50.780;0.292;2023-06-10T02:45:48;45.92;;;12.18;;
4696;SDS011;2362;50.780;0.292;2023-06-10T02:48:13;35.20;;;12.82;;
4696;SDS011;2362;50.780;0.292;2023-06-10T02:50:39;35.45;;;11.60;;
4696;SDS011;2362;50.780;0.292;2023-06-10T02:53:05;40.15;;;14.13;;
4696;SDS011;2362;50.780;0.292;2023-06-10T02:55:31;40.50;;;12.13;;
4696;SDS011;2362;50.780;0.292;2023-06-10T02:57:57;39.38;;;12.52;;
4696;SDS011;2362;50.780;0.292;2023-06-10T03:00:24;46.17;;;11.98;;
4696;SDS011;2362;50.780;0.292;2023-06-10T03:02:50;50.20;;;11.88;;
4696;SDS011;2362;50.780;0.292;2023-06-10T03:05:16;48.58;;;14.02;;
4696;SDS011;2362;50.780;0.292;2023-06-10T03:07:42;46.85;;;13.48;;
4696;SDS011;2362;50.780;0.292;2023-06-10T03:10:07;39.58;;;12.00;;
4696;SDS011;2362;50.780;0.292;2023-06-10T03:12:33;53.42;;;13.48;;
4696;SDS011;2362;50.780;0.292;2023-06-10T03:14:59;33.70;;;12.50;;
4696;SDS011;2362;50.780;0.292;2023-06-10T03:17:25;39.97;;;13.02;;
4696;SDS011;2362;50.780;0.292;2023-06-10T03:19:50;41.50;;;12.25;;
4696;SDS011;2362;50.780;0.292;2023-06-10T03:22:16;34.40;;;12.32;;
4696;SDS011;2362;50.780;0.292;2023-06-10T03:24:42;40.20;;;13.00;;
4696;SDS011;2362;50.780;0.292;2023-06-10T03:27:34;46.28;;;12.63;;
4696;SDS011;2362;50.780;0.292;2023-06-10T03:30:00;40.88;;;13.27;;
4696;SDS011;2362;50.780;0.292;2023-06-10T03:32:26;49.47;;;13.48;;
4696;SDS011;2362;50.780;0.292;2023-06-10T03:34:52;53.28;;;13.88;;
4696;SDS011;2362;50.780;0.292;2023-06-10T03:37:22;38.83;;;13.10;;
4696;SDS011;2362;50.780;0.292;2023-06-10T03:39:48;33.08;;;12.32;;
4696;SDS011;2362;50.780;0.292;2023-06-10T03:42:13;34.45;;;13.48;;
4696;SDS011;2362;50.780;0.292;2023-06-10T03:44:39;36.78;;;13.02;;
4696;SDS011;2362;50.780;0.292;2023-06-10T03:47:05;45.85;;;12.65;;
4696;SDS011;2362;50.780;0.292;2023-06-10T03:49:31;45.33;;;12.90;;
4696;SDS011;2362;50.780;0.292;2023-06-10T03:51:56;47.53;;;14.07;;
4696;SDS011;2362;50.780;0.292;2023-06-10T03:54:24;48.28;;;13.05;;
4696;SDS011;2362;50.780;0.292;2023-06-10T03:56:50;57.55;;;14.38;;
4696;SDS011;2362;50.780;0.292;2023-06-10T03:59:16;44.22;;;12.98;;
4696;SDS011;2362;50.780;0.292;2023-06-10T04:01:42;33.70;;;12.73;;
4696;SDS011;2362;50.780;0.292;2023-06-10T04:04:09;38.67;;;11.98;;
4696;SDS011;2362;50.780;0.292;2023-06-10T04:06:35;50.17;;;13.35;;
4696;SDS011;2362;50.780;0.292;2023-06-10T04:09:02;41.42;;;12.73;;
4696;SDS011;2362;50.780;0.292;2023-06-10T04:11:28;44.28;;;13.13;;
4696;SDS011;2362;50.780;0.292;2023-06-10T04:13:53;30.38;;;13.00;;
4696;SDS011;2362;50.780;0.292;2023-06-10T04:16:19;37.40;;;12.80;;
4696;SDS011;2362;50.780;0.292;2023-06-10T04:18:46;38.00;;;12.57;;
4696;SDS011;2362;50.780;0.292;2023-06-10T04:21:12;49.92;;;14.18;;
4696;SDS011;2362;50.780;0.292;2023-06-10T04:23:37;43.92;;;13.48;;
4696;SDS011;2362;50.780;0.292;2023-06-10T04:26:03;45.72;;;13.57;;
4696;SDS011;2362;50.780;0.292;2023-06-10T04:28:31;39.50;;;12.60;;
4696;SDS011;2362;50.780;0.292;2023-06-10T04:30:57;43.85;;;13.95;;
4696;SDS011;2362;50.780;0.292;2023-06-10T04:33:23;44.45;;;12.15;;
4696;SDS011;2362;50.780;0.292;2023-06-10T04:35:49;50.70;;;13.15;;
4696;SDS011;2362;50.780;0.292;2023-06-10T04:38:15;43.65;;;12.63;;
4696;SDS011;2362;50.780;0.292;2023-06-10T04:40:41;42.15;;;11.98;;
4696;SDS011;2362;50.780;0.292;2023-06-10T04:43:07;44.22;;;12.88;;
4696;SDS011;2362;50.780;0.292;2023-06-10T04:45:33;37.90;;;12.70;;
4696;SDS011;2362;50.780;0.292;2023-06-10T04:47:58;49.92;;;13.40;;
4696;SDS011;2362;50.780;0.292;2023-06-10T04:50:24;39.40;;;12.43;;
4696;SDS011;2362;50.780;0.292;2023-06-10T04:52:50;43.50;;;13.45;;
4696;SDS011;2362;50.780;0.292;2023-06-10T04:55:15;44.38;;;12.32;;
4696;SDS011;2362;50.780;0.292;2023-06-10T04:57:41;36.70;;;11.45;;
4696;SDS011;2362;50.780;0.292;2023-06-10T05:00:32;39.05;;;11.75;;
4696;SDS011;2362;50.780;0.292;2023-06-10T05:03:23;35.75;;;12.30;;
4696;SDS011;2362;50.780;0.292;2023-06-10T05:05:50;37.50;;;11.88;;
4696;SDS011;2362;50.780;0.292;2023-06-10T05:08:16;35.90;;;10.95;;
4696;SDS011;2362;50.780;0.292;2023-06-10T05:10:41;33.58;;;10.98;;
4696;SDS011;2362;50.780;0.292;2023-06-10T05:13:07;31.73;;;10.27;;
4696;SDS011;2362;50.780;0.292;2023-06-10T05:15:33;34.70;;;11.70;;
4696;SDS011;2362;50.780;0.292;2023-06-10T05:17:58;40.47;;;10.40;;
4696;SDS011;2362;50.780;0.292;2023-06-10T05:20:24;28.23;;;10.40;;
4696;SDS011;2362;50.780;0.292;2023-06-10T05:22:50;30.92;;;9.55;;
4696;SDS011;2362;50.780;0.292;2023-06-10T05:25:17;35.78;;;10.30;;
4696;SDS011;2362;50.780;0.292;2023-06-10T05:27:42;33.97;;;10.80;;
4696;SDS011;2362;50.780;0.292;2023-06-10T05:30:09;29.75;;;8.95;;
4696;SDS011;2362;50.780;0.292;2023-06-10T05:32:35;30.85;;;9.27;;
4696;SDS011;2362;50.780;0.292;2023-06-10T05:35:01;35.55;;;12.10;;
4696;SDS011;2362;50.780;0.292;2023-06-10T05:37:54;34.70;;;9.50;;
4696;SDS011;2362;50.780;0.292;2023-06-10T05:40:20;44.63;;;11.20;;
4696;SDS011;2362;50.780;0.292;2023-06-10T05:42:46;29.08;;;10.25;;
4696;SDS011;2362;50.780;0.292;2023-06-10T05:45:12;29.90;;;9.38;;
4696;SDS011;2362;50.780;0.292;2023-06-10T05:47:38;26.63;;;9.40;;
4696;SDS011;2362;50.780;0.292;2023-06-10T05:50:04;34.10;;;10.70;;
4696;SDS011;2362;50.780;0.292;2023-06-10T05:52:32;27.73;;;9.65;;
4696;SDS011;2362;50.780;0.292;2023-06-10T05:54:59;31.13;;;9.25;;
4696;SDS011;2362;50.780;0.292;2023-06-10T05:57:25;36.45;;;10.65;;
4696;SDS011;2362;50.780;0.292;2023-06-10T05:59:51;50.92;;;10.27;;
4696;SDS011;2362;50.780;0.292;2023-06-10T06:02:17;38.40;;;9.93;;
4696;SDS011;2362;50.780;0.292;2023-06-10T06:04:43;29.10;;;10.32;;
4696;SDS011;2362;50.780;0.292;2023-06-10T06:07:09;20.52;;;9.10;;
4696;SDS011;2362;50.780;0.292;2023-06-10T06:09:35;27.17;;;9.90;;
4696;SDS011;2362;50.780;0.292;2023-06-10T06:12:02;25.45;;;9.77;;
4696;SDS011;2362;50.780;0.292;2023-06-10T06:14:30;24.27;;;8.50;;
4696;SDS011;2362;50.780;0.292;2023-06-10T06:16:57;36.85;;;9.88;;
4696;SDS011;2362;50.780;0.292;2023-06-10T06:19:22;26.67;;;9.27;;
4696;SDS011;2362;50.780;0.292;2023-06-10T06:21:48;27.60;;;8.60;;
4696;SDS011;2362;50.780;0.292;2023-06-10T06:24:15;30.85;;;9.77;;
4696;SDS011;2362;50.780;0.292;2023-06-10T06:26:41;31.98;;;10.10;;
4696;SDS011;2362;50.780;0.292;2023-06-10T06:29:07;29.30;;;8.80;;
4696;SDS011;2362;50.780;0.292;2023-06-10T06:31:32;32.90;;;9.18;;
4696;SDS011;2362;50.780;0.292;2023-06-10T06:33:58;22.65;;;9.07;;
4696;SDS011;2362;50.780;0.292;2023-06-10T06:36:26;24.50;;;8.68;;
4696;SDS011;2362;50.780;0.292;2023-06-10T06:38:52;21.20;;;9.00;;
4696;SDS011;2362;50.780;0.292;2023-06-10T06:41:18;23.48;;;8.30;;
4696;SDS011;2362;50.780;0.292;2023-06-10T06:43:44;23.73;;;8.60;;
4696;SDS011;2362;50.780;0.292;2023-06-10T06:46:10;22.50;;;9.20;;
4696;SDS011;2362;50.780;0.292;2023-06-10T06:48:35;23.30;;;9.15;;
4696;SDS011;2362;50.780;0.292;2023-06-10T06:51:01;25.13;;;8.30;;
4696;SDS011;2362;50.780;0.292;2023-06-10T06:53:27;27.77;;;9.95;;
4696;SDS011;2362;50.780;0.292;2023-06-10T06:55:52;22.50;;;8.05;;
4696;SDS011;2362;50.780;0.292;2023-06-10T06:58:18;22.10;;;9.18;;
4696;SDS011;2362;50.780;0.292;2023-06-10T07:00:44;16.00;;;7.25;;
4696;SDS011;2362;50.780;0.292;2023-06-10T07:03:09;14.32;;;6.63;;
4696;SDS011;2362;50.780;0.292;2023-06-10T07:05:35;20.88;;;7.85;;
4696;SDS011;2362;50.780;0.292;2023-06-10T07:08:03;13.65;;;7.78;;
4696;SDS011;2362;50.780;0.292;2023-06-10T07:10:29;18.75;;;7.53;;
4696;SDS011;2362;50.780;0.292;2023-06-10T07:12:55;12.95;;;6.82;;
4696;SDS011;2362;50.780;0.292;2023-06-10T07:15:21;22.27;;;7.60;;
4696;SDS011;2362;50.780;0.292;2023-06-10T07:17:46;15.57;;;6.05;;
4696;SDS011;2362;50.780;0.292;2023-06-10T07:20:12;19.67;;;7.10;;
4696;SDS011;2362;50.780;0.292;2023-06-10T07:22:39;13.00;;;7.20;;
4696;SDS011;2362;50.780;0.292;2023-06-10T07:25:06;21.13;;;6.55;;
4696;SDS011;2362;50.780;0.292;2023-06-10T07:27:32;15.02;;;6.88;;
4696;SDS011;2362;50.780;0.292;2023-06-10T07:29:58;17.20;;;6.72;;
4696;SDS011;2362;50.780;0.292;2023-06-10T07:32:25;10.45;;;6.63;;
4696;SDS011;2362;50.780;0.292;2023-06-10T07:34:51;11.70;;;6.55;;
4696;SDS011;2362;50.780;0.292;2023-06-10T07:37:17;11.80;;;6.20;;
4696;SDS011;2362;50.780;0.292;2023-06-10T07:39:44;12.43;;;7.13;;
4696;SDS011;2362;50.780;0.292;2023-06-10T07:42:10;19.13;;;6.18;;
4696;SDS011;2362;50.780;0.292;2023-06-10T07:44:36;15.73;;;6.25;;
4696;SDS011;2362;50.780;0.292;2023-06-10T07:47:01;16.27;;;5.78;;
4696;SDS011;2362;50.780;0.292;2023-06-10T07:49:27;12.25;;;6.00;;
4696;SDS011;2362;50.780;0.292;2023-06-10T07:51:56;9.05;;;6.70;;
4696;SDS011;2362;50.780;0.292;2023-06-10T07:54:22;14.18;;;6.85;;
4696;SDS011;2362;50.780;0.292;2023-06-10T07:56:48;12.60;;;6.85;;
4696;SDS011;2362;50.780;0.292;2023-06-10T07:59:14;10.25;;;6.88;;
4696;SDS011;2362;50.780;0.292;2023-06-10T08:01:41;13.73;;;6.88;;
4696;SDS011;2362;50.780;0.292;2023-06-10T08:04:08;22.25;;;6.88;;
4696;SDS011;2362;50.780;0.292;2023-06-10T08:06:33;14.05;;;7.65;;
4696;SDS011;2362;50.780;0.292;2023-06-10T08:08:59;15.00;;;7.30;;
4696;SDS011;2362;50.780;0.292;2023-06-10T08:11:26;11.88;;;6.93;;
4696;SDS011;2362;50.780;0.292;2023-06-10T08:13:53;15.77;;;6.07;;
4696;SDS011;2362;50.780;0.292;2023-06-10T08:16:19;21.77;;;7.03;;
4696;SDS011;2362;50.780;0.292;2023-06-10T08:18:45;12.00;;;6.32;;
4696;SDS011;2362;50.780;0.292;2023-06-10T08:21:10;11.07;;;6.13;;
4696;SDS011;2362;50.780;0.292;2023-06-10T08:23:36;11.10;;;6.43;;
4696;SDS011;2362;50.780;0.292;2023-06-10T08:26:02;15.13;;;6.05;;
4696;SDS011;2362;50.780;0.292;2023-06-10T08:28:27;18.13;;;6.45;;
4696;SDS011;2362;50.780;0.292;2023-06-10T08:30:53;12.23;;;6.22;;
4696;SDS011;2362;50.780;0.292;2023-06-10T08:33:18;14.82;;;6.82;;
4696;SDS011;2362;50.780;0.292;2023-06-10T08:35:44;8.18;;;6.15;;
4696;SDS011;2362;50.780;0.292;2023-06-10T08:38:10;11.43;;;6.78;;
4696;SDS011;2362;50.780;0.292;2023-06-10T08:40:36;21.05;;;6.72;;
4696;SDS011;2362;50.780;0.292;2023-06-10T08:45:32;16.35;;;6.85;;
4696;SDS011;2362;50.780;0.292;2023-06-10T08:48:00;12.48;;;6.80;;
4696;SDS011;2362;50.780;0.292;2023-06-10T08:50:34;14.43;;;7.65;;
4696;SDS011;2362;50.780;0.292;2023-06-10T08:53:02;15.13;;;7.15;;
4696;SDS011;2362;50.780;0.292;2023-06-10T08:55:36;11.15;;;7.80;;
4696;SDS011;2362;50.780;0.292;2023-06-10T08:58:03;18.00;;;7.57;;
4696;SDS011;2362;50.780;0.292;2023-06-10T09:00:30;17.10;;;8.93;;
4696;SDS011;2362;50.780;0.292;2023-06-10T09:02:56;19.33;;;8.05;;
4696;SDS011;2362;50.780;0.292;2023-06-10T09:05:22;15.80;;;7.35;;
4696;SDS011;2362;50.780;0.292;2023-06-10T09:07:48;12.27;;;7.22;;
4696;SDS011;2362;50.780;0.292;2023-06-10T09:10:17;16.75;;;8.50;;
4696;SDS011;2362;50.780;0.292;2023-06-10T09:12:43;21.15;;;9.02;;
4696;SDS011;2362;50.780;0.292;2023-06-10T09:15:09;18.52;;;8.82;;
4696;SDS011;2362;50.780;0.292;2023-06-10T09:17:36;14.90;;;7.72;;
4696;SDS011;2362;50.780;0.292;2023-06-10T09:20:03;13.60;;;8.35;;
4696;SDS011;2362;50.780;0.292;2023-06-10T09:22:29;16.42;;;8.70;;
4696;SDS011;2362;50.780;0.292;2023-06-10T09:25:34;20.73;;;9.90;;
4696;SDS011;2362;50.780;0.292;2023-06-10T09:27:59;20.15;;;9.15;;
4696;SDS011;2362;50.780;0.292;2023-06-10T09:30:25;17.60;;;8.52;;
4696;SDS011;2362;50.780;0.292;2023-06-10T09:32:52;17.20;;;8.63;;
4696;SDS011;2362;50.780;0.292;2023-06-10T09:35:25;25.25;;;9.90;;
4696;SDS011;2362;50.780;0.292;2023-06-10T09:37:52;31.23;;;9.52;;
4696;SDS011;2362;50.780;0.292;2023-06-10T09:40:53;17.98;;;10.13;;
4696;SDS011;2362;50.780;0.292;2023-06-10T09:43:19;18.85;;;8.80;;
4696;SDS011;2362;50.780;0.292;2023-06-10T09:45:49;16.92;;;9.77;;
4696;SDS011;2362;50.780;0.292;2023-06-10T09:48:17;18.00;;;9.23;;
4696;SDS011;2362;50.780;0.292;2023-06-10T09:50:43;14.77;;;8.65;;
4696;SDS011;2362;50.780;0.292;2023-06-10T09:53:10;18.10;;;10.32;;
4696;SDS011;2362;50.780;0.292;2023-06-10T09:55:37;26.27;;;10.07;;
4696;SDS011;2362;50.780;0.292;2023-06-10T09:58:04;15.93;;;10.60;;
4696;SDS011;2362;50.780;0.292;2023-06-10T10:00:31;11.98;;;8.77;;
4696;SDS011;2362;50.780;0.292;2023-06-10T10:02:58;14.00;;;9.82;;
4696;SDS011;2362;50.780;0.292;2023-06-10T10:05:24;19.08;;;10.40;;
4696;SDS011;2362;50.780;0.292;2023-06-10T10:07:50;13.38;;;8.85;;
4696;SDS011;2362;50.780;0.292;2023-06-10T10:10:17;15.00;;;10.25;;
4696;SDS011;2362;50.780;0.292;2023-06-10T10:12:45;19.75;;;10.63;;
4696;SDS011;2362;50.780;0.292;2023-06-10T10:15:13;24.73;;;11.40;;
4696;SDS011;2362;50.780;0.292;2023-06-10T10:17:44;17.75;;;10.35;;
4696;SDS011;2362;50.780;0.292;2023-06-10T10:20:16;16.55;;;9.85;;
4696;SDS011;2362;50.780;0.292;2023-06-10T10:22:45;19.73;;;10.63;;
4696;SDS011;2362;50.780;0.292;2023-06-10T10:25:21;16.95;;;10.43;;
4696;SDS011;2362;50.780;0.292;2023-06-10T10:30:34;15.00;;;9.77;;
4696;SDS011;2362;50.780;0.292;2023-06-10T10:33:06;21.30;;;9.80;;
4696;SDS011;2362;50.780;0.292;2023-06-10T10:35:37;22.52;;;9.07;;
4696;SDS011;2362;50.780;0.292;2023-06-10T10:38:04;17.23;;;9.85;;
4696;SDS011;2362;50.780;0.292;2023-06-10T10:40:31;14.25;;;8.88;;
4696;SDS011;2362;50.780;0.292;2023-06-10T10:42:58;16.70;;;11.65;;
4696;SDS011;2362;50.780;0.292;2023-06-10T10:45:26;20.13;;;11.27;;
4696;SDS011;2362;50.780;0.292;2023-06-10T10:47:53;24.08;;;10.10;;
4696;SDS011;2362;50.780;0.292;2023-06-10T10:50:21;13.55;;;10.52;;
4696;SDS011;2362;50.780;0.292;2023-06-10T10:53:00;16.20;;;10.27;;
4696;SDS011;2362;50.780;0.292;2023-06-10T10:55:28;15.35;;;10.77;;
4696;SDS011;2362;50.780;0.292;2023-06-10T10:58:04;15.25;;;9.75;;
4696;SDS011;2362;50.780;0.292;2023-06-10T11:00:30;13.45;;;9.30;;
4696;SDS011;2362;50.780;0.292;2023-06-10T11:08:10;17.35;;;10.40;;
4696;SDS011;2362;50.780;0.292;2023-06-10T11:10:37;17.17;;;11.20;;
4696;SDS011;2362;50.780;0.292;2023-06-10T11:13:09;22.15;;;10.65;;
4696;SDS011;2362;50.780;0.292;2023-06-10T11:15:40;23.30;;;10.32;;
4696;SDS011;2362;50.780;0.292;2023-06-10T11:28:52;27.85;;;11.25;;
4696;SDS011;2362;50.780;0.292;2023-06-10T11:31:31;21.13;;;12.60;;
4696;SDS011;2362;50.780;0.292;2023-06-10T11:34:02;26.00;;;10.50;;
4696;SDS011;2362;50.780;0.292;2023-06-10T11:36:30;19.20;;;11.18;;
4696;SDS011;2362;50.780;0.292;2023-06-10T11:39:02;26.70;;;14.15;;
4696;SDS011;2362;50.780;0.292;2023-06-10T11:41:30;19.58;;;14.80;;
4696;SDS011;2362;50.780;0.292;2023-06-10T11:44:07;22.80;;;13.52;;
4696;SDS011;2362;50.780;0.292;2023-06-10T11:46:34;21.88;;;15.38;;
4696;SDS011;2362;50.780;0.292;2023-06-10T11:49:00;27.80;;;15.52;;
4696;SDS011;2362;50.780;0.292;2023-06-10T11:51:30;24.40;;;17.38;;
4696;SDS011;2362;50.780;0.292;2023-06-10T11:54:08;31.40;;;19.27;;
4696;SDS011;2362;50.780;0.292;2023-06-10T11:56:34;32.47;;;18.38;;
4696;SDS011;2362;50.780;0.292;2023-06-10T11:59:01;29.60;;;17.38;;
4696;SDS011;2362;50.780;0.292;2023-06-10T12:01:33;36.80;;;18.13;;
4696;SDS011;2362;50.780;0.292;2023-06-10T12:04:07;27.10;;;16.65;;
4696;SDS011;2362;50.780;0.292;2023-06-10T12:06:55;25.77;;;16.45;;
4696;SDS011;2362;50.780;0.292;2023-06-10T12:09:28;26.88;;;16.33;;
4696;SDS011;2362;50.780;0.292;2023-06-10T12:11:57;26.02;;;16.20;;
4696;SDS011;2362;50.780;0.292;2023-06-10T12:17:15;18.63;;;13.25;;
4696;SDS011;2362;50.780;0.292;2023-06-10T12:19:40;18.70;;;11.90;;
4696;SDS011;2362;50.780;0.292;2023-06-10T12:22:06;23.35;;;11.27;;
4696;SDS011;2362;50.780;0.292;2023-06-10T12:24:32;15.85;;;11.00;;
4696;SDS011;2362;50.780;0.292;2023-06-10T12:26:57;17.55;;;10.20;;
4696;SDS011;2362;50.780;0.292;2023-06-10T12:29:24;24.88;;;12.32;;
4696;SDS011;2362;50.780;0.292;2023-06-10T12:34:18;21.15;;;10.93;;
4696;SDS011;2362;50.780;0.292;2023-06-10T12:36:48;18.08;;;12.18;;
4696;SDS011;2362;50.780;0.292;2023-06-10T12:39:14;27.30;;;13.05;;
4696;SDS011;2362;50.780;0.292;2023-06-10T12:41:39;32.08;;;15.68;;
4696;SDS011;2362;50.780;0.292;2023-06-10T12:44:05;28.23;;;17.40;;
4696;SDS011;2362;50.780;0.292;2023-06-10T12:46:57;28.08;;;17.65;;
4696;SDS011;2362;50.780;0.292;2023-06-10T12:49:23;27.70;;;15.75;;
4696;SDS011;2362;50.780;0.292;2023-06-10T12:51:49;27.80;;;19.10;;
4696;SDS011;2362;50.780;0.292;2023-06-10T12:54:14;29.08;;;17.92;;
4696;SDS011;2362;50.780;0.292;2023-06-10T12:56:40;28.85;;;19.40;;
4696;SDS011;2362;50.780;0.292;2023-06-10T12:59:06;21.20;;;16.80;;
4696;SDS011;2362;50.780;0.292;2023-06-10T13:01:31;29.35;;;18.77;;
4696;SDS011;2362;50.780;0.292;2023-06-10T13:03:58;25.92;;;17.13;;
4696;SDS011;2362;50.780;0.292;2023-06-10T13:06:24;25.88;;;15.55;;
4696;SDS011;2362;50.780;0.292;2023-06-10T13:08:50;19.58;;;13.65;;
4696;SDS011;2362;50.780;0.292;2023-06-10T13:11:16;25.27;;;13.93;;
4696;SDS011;2362;50.780;0.292;2023-06-10T13:13:42;21.33;;;13.25;;
4696;SDS011;2362;50.780;0.292;2023-06-10T13:16:08;25.42;;;14.60;;
4696;SDS011;2362;50.780;0.292;2023-06-10T13:18:33;32.08;;;15.68;;
4696;SDS011;2362;50.780;0.292;2023-06-10T13:21:27;33.65;;;22.20;;
4696;SDS011;2362;50.780;0.292;2023-06-10T13:23:54;37.58;;;23.17;;
4696;SDS011;2362;50.780;0.292;2023-06-10T13:26:21;36.13;;;24.30;;
4696;SDS011;2362;50.780;0.292;2023-06-10T13:28:47;33.55;;;22.55;;
4696;SDS011;2362;50.780;0.292;2023-06-10T13:31:12;30.50;;;20.88;;
4696;SDS011;2362;50.780;0.292;2023-06-10T13:33:38;40.78;;;19.50;;
4696;SDS011;2362;50.780;0.292;2023-06-10T13:36:04;29.05;;;22.33;;
4696;SDS011;2362;50.780;0.292;2023-06-10T13:38:29;42.75;;;26.40;;
4696;SDS011;2362;50.780;0.292;2023-06-10T13:40:55;39.55;;;25.30;;
4696;SDS011;2362;50.780;0.292;2023-06-10T13:43:21;39.35;;;27.02;;
4696;SDS011;2362;50.780;0.292;2023-06-10T13:45:47;49.15;;;28.95;;
4696;SDS011;2362;50.780;0.292;2023-06-10T13:48:12;46.97;;;28.63;;
4696;SDS011;2362;50.780;0.292;2023-06-10T13:50:39;43.65;;;28.98;;
4696;SDS011;2362;50.780;0.292;2023-06-10T13:53:05;45.15;;;25.73;;
4696;SDS011;2362;50.780;0.292;2023-06-10T13:55:30;39.60;;;27.80;;
4696;SDS011;2362;50.780;0.292;2023-06-10T13:57:56;46.97;;;34.13;;
4696;SDS011;2362;50.780;0.292;2023-06-10T14:00:21;60.65;;;35.00;;
4696;SDS011;2362;50.780;0.292;2023-06-10T14:02:47;45.42;;;33.90;;
4696;SDS011;2362;50.780;0.292;2023-06-10T14:05:13;48.05;;;32.55;;
4696;SDS011;2362;50.780;0.292;2023-06-10T14:07:38;54.28;;;33.72;;
4696;SDS011;2362;50.780;0.292;2023-06-10T14:10:06;50.40;;;33.10;;
4696;SDS011;2362;50.780;0.292;2023-06-10T14:12:33;50.85;;;30.95;;
4696;SDS011;2362;50.780;0.292;2023-06-10T14:14:59;53.35;;;33.15;;
4696;SDS011;2362;50.780;0.292;2023-06-10T14:17:25;41.00;;;31.77;;
4696;SDS011;2362;50.780;0.292;2023-06-10T14:19:52;50.97;;;34.42;;
4696;SDS011;2362;50.780;0.292;2023-06-10T14:22:18;57.95;;;34.08;;
4696;SDS011;2362;50.780;0.292;2023-06-10T14:24:43;51.95;;;34.30;;
4696;SDS011;2362;50.780;0.292;2023-06-10T14:27:09;53.95;;;34.35;;
4696;SDS011;2362;50.780;0.292;2023-06-10T14:29:34;45.30;;;33.88;;
4696;SDS011;2362;50.780;0.292;2023-06-10T14:32:00;53.15;;;36.05;;
4696;SDS011;2362;50.780;0.292;2023-06-10T14:34:26;57.63;;;33.95;;
4696;SDS011;2362;50.780;0.292;2023-06-10T14:36:54;49.63;;;35.15;;
4696;SDS011;2362;50.780;0.292;2023-06-10T14:39:20;56.67;;;35.08;;
4696;SDS011;2362;50.780;0.292;2023-06-10T14:41:46;60.83;;;37.83;;
4696;SDS011;2362;50.780;0.292;2023-06-10T14:44:11;54.78;;;36.15;;
4696;SDS011;2362;50.780;0.292;2023-06-10T14:46:37;51.00;;;34.17;;
4696;SDS011;2362;50.780;0.292;2023-06-10T14:49:03;48.42;;;31.80;;
4696;SDS011;2362;50.780;0.292;2023-06-10T14:51:28;44.70;;;31.95;;
4696;SDS011;2362;50.780;0.292;2023-06-10T14:53:54;42.17;;;30.75;;
4696;SDS011;2362;50.780;0.292;2023-06-10T14:56:20;47.35;;;31.27;;
4696;SDS011;2362;50.780;0.292;2023-06-10T14:58:45;42.60;;;28.30;;
4696;SDS011;2362;50.780;0.292;2023-06-10T15:01:11;42.30;;;27.13;;
4696;SDS011;2362;50.780;0.292;2023-06-10T15:03:37;42.40;;;28.08;;
4696;SDS011;2362;50.780;0.292;2023-06-10T15:06:03;35.53;;;26.48;;
4696;SDS011;2362;50.780;0.292;2023-06-10T15:08:28;43.05;;;23.58;;
4696;SDS011;2362;50.780;0.292;2023-06-10T15:10:54;37.33;;;23.23;;
4696;SDS011;2362;50.780;0.292;2023-06-10T15:13:22;38.95;;;22.90;;
4696;SDS011;2362;50.780;0.292;2023-06-10T15:15:47;32.00;;;21.10;;
4696;SDS011;2362;50.780;0.292;2023-06-10T15:18:13;31.38;;;19.77;;
4696;SDS011;2362;50.780;0.292;2023-06-10T15:20:39;36.03;;;20.23;;
4696;SDS011;2362;50.780;0.292;2023-06-10T15:23:30;30.45;;;19.40;;
4696;SDS011;2362;50.780;0.292;2023-06-10T15:26:21;35.30;;;18.73;;